Time;durP1;ratioP1;P1;durP2;ratioP2;P2;SDS_P1;SDS_P2;PMS_P1;PMS_P2;Temp;Humidity;BMP_temperature;BMP_pressure;BME280_temperature;BME280_humidity;BME280_pressure;Samples;Min_cycle;Max_cycle;Signal;HPM_P1;HPM_P2
2023/05/20 00:00:07;;;;;;;12.18;7.28;;;;;;;;;;5033647;28;20120;-70
2023/05/20 00:02:33;;;;;;;9.98;6.80;;;;;;;;;;5033868;28;20037;-70
2023/05/20 00:04:59;;;;;;;11.00;7.15;;;;;;;;;;5033505;28;20029;-71
2023/05/20 00:07:25;;;;;;;9.45;6.60;;;;;;;;;;5034048;28;20360;-69
2023/05/20 00:09:51;;;;;;;9.98;6.43;;;;;;;;;;5033956;28;20057;-70
2023/05/20 00:12:16;;;;;;;14.32;7.18;;;;;;;;;;5033846;28;20422;-69
2023/05/20 00:14:42;;;;;;;13.20;6.93;;;;;;;;;;5033247;28;20048;-69
2023/05/20 00:17:08;;;;;;;9.32;6.10;;;;;;;;;;5033667;28;20029;-69
2023/05/20 00:19:33;;;;;;;11.10;6.78;;;;;;;;;;5033444;28;20044;-70
2023/05/20 00:21:59;;;;;;;10.65;6.50;;;;;;;;;;5033755;28;20025;-69
2023/05/20 00:24:26;;;;;;;8.25;5.05;;;;;;;;;;5033182;28;20037;-70
2023/05/20 00:26:52;;;;;;;8.13;5.20;;;;;;;;;;5033653;28;20543;-69
2023/05/20 00:29:20;;;;;;;14.82;5.80;;;;;;;;;;5033545;28;20037;-70
2023/05/20 00:31:47;;;;;;;18.38;6.82;;;;;;;;;;5033268;28;20029;-70
2023/05/20 00:34:13;;;;;;;10.75;5.43;;;;;;;;;;5015254;28;20095;-70
2023/05/20 00:36:38;;;;;;;10.55;5.68;;;;;;;;;;5031853;28;20033;-70
2023/05/20 00:39:04;;;;;;;7.82;5.20;;;;;;;;;;5033281;28;20037;-70
2023/05/20 00:41:30;;;;;;;7.93;5.22;;;;;;;;;;5028167;28;20056;-70
2023/05/20 00:43:56;;;;;;;7.13;5.38;;;;;;;;;;5028624;28;20033;-70
2023/05/20 00:46:25;;;;;;;9.18;6.10;;;;;;;;;;5032872;28;20020;-70
2023/05/20 00:48:51;;;;;;;6.80;5.10;;;;;;;;;;5028480;28;20036;-70
2023/05/20 00:51:18;;;;;;;9.57;5.32;;;;;;;;;;5047792;28;20116;-70
2023/05/20 00:53:45;;;;;;;9.70;6.25;;;;;;;;;;5032255;28;20041;-70
2023/05/20 00:56:11;;;;;;;10.85;6.35;;;;;;;;;;5029790;28;20079;-70
2023/05/20 00:58:37;;;;;;;7.88;5.60;;;;;;;;;;5032278;28;20045;-70
2023/05/20 01:01:04;;;;;;;13.80;5.78;;;;;;;;;;5031199;28;20487;-70
2023/05/20 01:03:30;;;;;;;9.45;6.35;;;;;;;;;;5031408;28;20091;-70
2023/05/20 01:05:56;;;;;;;9.30;6.93;;;;;;;;;;5029005;28;20425;-70
2023/05/20 01:08:24;;;;;;;10.20;6.45;;;;;;;;;;5032986;28;20033;-71
2023/05/20 01:10:58;;;;;;;14.60;6.65;;;;;;;;;;5033876;28;20029;-70
2023/05/20 01:13:29;;;;;;;9.57;6.13;;;;;;;;;;5032590;28;20041;-71
2023/05/20 01:15:55;;;;;;;7.57;6.15;;;;;;;;;;5032277;28;20033;-71
2023/05/20 01:18:24;;;;;;;8.95;5.97;;;;;;;;;;5032107;28;20033;-71
2023/05/20 01:20:53;;;;;;;8.23;5.80;;;;;;;;;;5049127;28;20057;-70
2023/05/20 01:23:20;;;;;;;13.95;7.03;;;;;;;;;;5032521;28;20028;-70
2023/05/20 01:25:46;;;;;;;12.38;7.65;;;;;;;;;;5031942;28;20064;-70
2023/05/20 01:28:16;;;;;;;15.55;7.78;;;;;;;;;;5032278;28;20135;-70
2023/05/20 01:30:49;;;;;;;16.73;8.75;;;;;;;;;;5033072;28;20112;-71
2023/05/20 01:33:17;;;;;;;16.33;8.57;;;;;;;;;;5030411;28;20034;-70
2023/05/20 01:35:43;;;;;;;17.50;9.10;;;;;;;;;;5030697;28;20029;-71
2023/05/20 01:38:10;;;;;;;18.70;8.63;;;;;;;;;;5032875;28;20069;-71
2023/05/20 01:40:38;;;;;;;14.55;7.47;;;;;;;;;;5031747;28;20068;-71
2023/05/20 01:43:04;;;;;;;11.95;7.95;;;;;;;;;;5029943;28;20152;-71
2023/05/20 01:45:30;;;;;;;13.07;7.60;;;;;;;;;;5029877;28;20368;-71
2023/05/20 01:47:56;;;;;;;14.85;8.50;;;;;;;;;;5030337;28;20040;-71
2023/05/20 01:50:22;;;;;;;15.13;8.45;;;;;;;;;;5017326;28;20056;-71
2023/05/20 01:52:47;;;;;;;20.30;9.88;;;;;;;;;;5031476;28;20045;-71
2023/05/20 01:55:13;;;;;;;19.00;9.65;;;;;;;;;;5029270;28;20029;-71
2023/05/20 01:57:39;;;;;;;14.77;9.13;;;;;;;;;;5030162;28;20495;-71
2023/05/20 02:00:05;;;;;;;16.95;9.25;;;;;;;;;;5026708;28;20079;-72
2023/05/20 02:02:39;;;;;;;17.25;8.45;;;;;;;;;;5011565;28;20046;-71
2023/05/20 02:05:05;;;;;;;15.70;8.77;;;;;;;;;;5014827;28;20052;-71
2023/05/20 02:07:30;;;;;;;18.50;8.40;;;;;;;;;;5031199;28;20498;-71
2023/05/20 02:09:56;;;;;;;18.58;8.70;;;;;;;;;;5028837;28;20040;-71
2023/05/20 02:12:21;;;;;;;23.13;9.25;;;;;;;;;;5031193;28;20044;-72
2023/05/20 02:14:49;;;;;;;20.33;9.05;;;;;;;;;;5029591;28;20049;-71
2023/05/20 02:17:16;;;;;;;12.43;8.13;;;;;;;;;;5030239;28;20052;-70
2023/05/20 02:19:43;;;;;;;19.65;9.15;;;;;;;;;;5030116;28;20033;-69
2023/05/20 02:22:08;;;;;;;11.95;7.97;;;;;;;;;;5027567;28;20030;-69
2023/05/20 02:24:35;;;;;;;14.10;8.73;;;;;;;;;;5030037;28;20059;-69
2023/05/20 02:27:02;;;;;;;17.73;8.38;;;;;;;;;;5027030;28;20037;-69
2023/05/20 02:29:27;;;;;;;14.85;8.13;;;;;;;;;;5030597;28;20446;-69
2023/05/20 02:31:53;;;;;;;14.10;7.30;;;;;;;;;;5047869;28;20021;-69
2023/05/20 02:34:20;;;;;;;17.25;7.78;;;;;;;;;;5043391;28;20037;-70
2023/05/20 02:36:46;;;;;;;12.65;7.70;;;;;;;;;;5045677;28;20025;-71
2023/05/20 02:39:12;;;;;;;14.02;8.02;;;;;;;;;;5045779;28;20473;-68
2023/05/20 02:41:38;;;;;;;15.02;8.55;;;;;;;;;;5044528;28;20114;-71
2023/05/20 02:44:04;;;;;;;14.88;8.27;;;;;;;;;;5042621;28;20047;-70
2023/05/20 02:46:30;;;;;;;14.65;8.38;;;;;;;;;;5044974;28;20111;-71
2023/05/20 02:48:56;;;;;;;13.82;7.70;;;;;;;;;;5064469;28;20024;-71
2023/05/20 02:51:22;;;;;;;15.73;7.93;;;;;;;;;;5045351;28;20078;-70
2023/05/20 02:53:48;;;;;;;11.98;7.60;;;;;;;;;;5034386;28;20121;-71
2023/05/20 02:56:15;;;;;;;14.57;7.97;;;;;;;;;;5019963;28;20030;-70
2023/05/20 02:58:41;;;;;;;12.40;8.25;;;;;;;;;;5029470;28;20037;-70
2023/05/20 03:01:06;;;;;;;16.00;8.18;;;;;;;;;;5031184;28;20029;-71
2023/05/20 03:03:33;;;;;;;13.27;7.88;;;;;;;;;;5030715;28;20026;-69
2023/05/20 03:05:58;;;;;;;14.95;8.52;;;;;;;;;;5032935;28;20032;-70
2023/05/20 03:08:24;;;;;;;16.25;8.45;;;;;;;;;;5039328;28;20108;-71
2023/05/20 03:10:50;;;;;;;17.40;8.30;;;;;;;;;;5045185;28;20052;-69
2023/05/20 03:13:16;;;;;;;12.38;8.20;;;;;;;;;;5045866;28;20029;-70
2023/05/20 03:15:44;;;;;;;13.20;8.68;;;;;;;;;;5042844;28;20142;-70
2023/05/20 03:18:11;;;;;;;15.20;8.77;;;;;;;;;;5046976;28;20060;-71
2023/05/20 03:20:38;;;;;;;15.68;8.48;;;;;;;;;;5035717;28;20433;-70
2023/05/20 03:23:06;;;;;;;17.73;8.93;;;;;;;;;;5051090;28;20032;-69
2023/05/20 03:25:32;;;;;;;13.65;8.77;;;;;;;;;;5050039;28;20569;-69
2023/05/20 03:27:58;;;;;;;13.85;9.90;;;;;;;;;;5051596;28;20163;-70
2023/05/20 03:30:27;;;;;;;24.75;9.23;;;;;;;;;;5051889;28;20170;-71
2023/05/20 03:32:57;;;;;;;15.02;9.18;;;;;;;;;;5052458;28;20498;-69
2023/05/20 03:35:24;;;;;;;20.95;8.68;;;;;;;;;;5051619;28;20546;-69
2023/05/20 03:37:52;;;;;;;16.48;8.95;;;;;;;;;;5048309;28;20507;-69
2023/05/20 03:40:21;;;;;;;17.08;8.77;;;;;;;;;;5042785;28;20037;-70
2023/05/20 03:42:48;;;;;;;14.68;7.05;;;;;;;;;;5045486;28;20040;-69
2023/05/20 03:45:14;;;;;;;12.82;6.15;;;;;;;;;;5049170;28;20037;-70
2023/05/20 03:47:47;;;;;;;12.15;7.00;;;;;;;;;;5031828;28;20052;-71
2023/05/20 03:50:16;;;;;;;13.48;6.32;;;;;;;;;;5031873;28;20041;-69
2023/05/20 03:52:41;;;;;;;18.50;7.35;;;;;;;;;;5051161;28;20021;-70
2023/05/20 03:55:08;;;;;;;14.55;6.10;;;;;;;;;;5034717;28;20094;-70
2023/05/20 03:57:35;;;;;;;16.88;7.03;;;;;;;;;;5033517;28;20032;-71
2023/05/20 04:00:04;;;;;;;14.90;6.30;;;;;;;;;;5032978;28;20407;-71
2023/05/20 04:02:30;;;;;;;12.93;5.60;;;;;;;;;;5050201;28;20090;-69
2023/05/20 04:04:57;;;;;;;15.70;5.85;;;;;;;;;;5051306;28;20033;-68
2023/05/20 04:07:23;;;;;;;8.75;5.15;;;;;;;;;;5052156;28;20025;-71
2023/05/20 04:09:49;;;;;;;8.38;5.30;;;;;;;;;;5052474;28;20394;-71
2023/05/20 04:12:14;;;;;;;8.68;5.15;;;;;;;;;;5047946;28;20026;-70
2023/05/20 04:14:41;;;;;;;8.05;5.50;;;;;;;;;;5043374;28;20032;-70
2023/05/20 04:17:08;;;;;;;11.10;5.50;;;;;;;;;;5061356;28;20623;-71
2023/05/20 04:19:35;;;;;;;12.30;5.25;;;;;;;;;;5051290;28;20051;-71
2023/05/20 04:22:01;;;;;;;9.80;4.80;;;;;;;;;;5051182;28;20021;-70
2023/05/20 04:24:26;;;;;;;13.40;5.20;;;;;;;;;;5043607;28;20548;-69
2023/05/20 04:26:52;;;;;;;8.50;4.93;;;;;;;;;;5052028;28;20021;-70
2023/05/20 04:29:18;;;;;;;6.95;4.47;;;;;;;;;;5043635;28;20041;-70
2023/05/20 04:31:45;;;;;;;9.20;4.90;;;;;;;;;;5051962;28;20029;-71
2023/05/20 04:34:12;;;;;;;11.40;4.45;;;;;;;;;;5049757;28;20033;-70
2023/05/20 04:36:38;;;;;;;7.40;4.88;;;;;;;;;;5040186;28;20045;-70
2023/05/20 04:39:04;;;;;;;7.97;4.60;;;;;;;;;;5042000;28;20025;-70
2023/05/20 04:41:30;;;;;;;8.32;5.00;;;;;;;;;;5055952;28;20024;-70
2023/05/20 04:44:00;;;;;;;11.93;5.43;;;;;;;;;;5029782;28;20131;-70
2023/05/20 04:46:26;;;;;;;7.22;5.28;;;;;;;;;;5050847;28;20379;-70
2023/05/20 04:48:52;;;;;;;13.25;5.53;;;;;;;;;;5050819;28;20032;-70
2023/05/20 04:51:19;;;;;;;11.80;6.78;;;;;;;;;;5052101;28;20496;-70
2023/05/20 04:53:44;;;;;;;14.57;5.35;;;;;;;;;;5050572;28;20112;-70
2023/05/20 04:56:11;;;;;;;15.60;5.45;;;;;;;;;;5050413;28;20186;-70
2023/05/20 04:58:36;;;;;;;14.85;6.00;;;;;;;;;;5050347;28;20017;-70
2023/05/20 05:01:02;;;;;;;7.80;5.93;;;;;;;;;;5052040;28;20032;-70
2023/05/20 05:03:29;;;;;;;13.45;6.20;;;;;;;;;;5050410;28;20021;-70
2023/05/20 05:05:56;;;;;;;9.30;5.22;;;;;;;;;;5050486;28;20029;-70
2023/05/20 05:08:22;;;;;;;11.88;5.70;;;;;;;;;;5050500;28;20025;-70
2023/05/20 05:10:51;;;;;;;11.25;6.15;;;;;;;;;;5050136;28;20036;-70
2023/05/20 05:13:17;;;;;;;11.60;4.88;;;;;;;;;;5042032;28;20021;-69
2023/05/20 05:15:43;;;;;;;10.85;5.82;;;;;;;;;;5050407;28;20037;-74
2023/05/20 05:18:10;;;;;;;10.63;5.75;;;;;;;;;;5041908;28;20032;-70
2023/05/20 05:20:37;;;;;;;17.63;6.25;;;;;;;;;;5041832;28;20090;-69
2023/05/20 05:23:03;;;;;;;13.48;6.15;;;;;;;;;;5034290;28;20025;-69
2023/05/20 05:25:28;;;;;;;9.82;5.80;;;;;;;;;;5034518;28;20033;-72
2023/05/20 05:27:57;;;;;;;8.98;5.63;;;;;;;;;;5038528;28;20021;-72
2023/05/20 05:30:22;;;;;;;8.98;5.95;;;;;;;;;;5048936;28;20047;-73
2023/05/20 05:32:48;;;;;;;9.27;5.32;;;;;;;;;;5050438;28;20437;-73
2023/05/20 05:35:14;;;;;;;8.70;5.35;;;;;;;;;;5049934;28;20047;-73
2023/05/20 05:37:40;;;;;;;8.63;5.85;;;;;;;;;;5048099;28;20397;-73
2023/05/20 05:40:07;;;;;;;9.48;5.88;;;;;;;;;;5038052;28;20037;-72
2023/05/20 05:42:33;;;;;;;23.35;6.22;;;;;;;;;;5043158;28;20475;-73
2023/05/20 05:45:00;;;;;;;11.57;6.38;;;;;;;;;;5049608;28;20120;-73
2023/05/20 05:47:31;;;;;;;19.30;6.45;;;;;;;;;;5049952;28;20112;-72
2023/05/20 05:49:58;;;;;;;10.02;6.10;;;;;;;;;;5033892;28;20033;-73
2023/05/20 05:52:25;;;;;;;16.67;5.53;;;;;;;;;;5049802;28;20088;-73
2023/05/20 05:54:51;;;;;;;14.75;6.55;;;;;;;;;;5049929;28;20064;-72
2023/05/20 05:57:17;;;;;;;8.32;5.32;;;;;;;;;;5050079;28;20036;-72
2023/05/20 05:59:43;;;;;;;9.98;5.80;;;;;;;;;;5045628;28;20064;-72
2023/05/20 06:02:09;;;;;;;17.83;6.55;;;;;;;;;;5044243;28;20112;-72
2023/05/20 06:04:35;;;;;;;13.77;5.85;;;;;;;;;;5051609;28;20182;-73
2023/05/20 06:07:01;;;;;;;10.38;5.75;;;;;;;;;;5050292;28;20523;-74
2023/05/20 06:09:27;;;;;;;12.50;5.88;;;;;;;;;;5039309;28;20239;-71
2023/05/20 06:11:53;;;;;;;9.43;5.78;;;;;;;;;;5039763;28;20442;-73
2023/05/20 06:14:19;;;;;;;15.02;6.25;;;;;;;;;;5039135;28;20037;-72
2023/05/20 06:16:45;;;;;;;10.63;5.40;;;;;;;;;;5054073;28;20439;-72
2023/05/20 06:19:11;;;;;;;9.93;5.53;;;;;;;;;;5047552;28;20029;-72
2023/05/20 06:21:37;;;;;;;11.68;5.50;;;;;;;;;;5041414;28;20036;-73
2023/05/20 06:24:04;;;;;;;23.15;6.13;;;;;;;;;;5049433;28;20029;-72
2023/05/20 06:26:30;;;;;;;8.68;4.80;;;;;;;;;;5049740;28;20029;-72
2023/05/20 06:28:57;;;;;;;8.98;5.43;;;;;;;;;;5049607;28;20029;-72
2023/05/20 06:31:22;;;;;;;16.75;6.03;;;;;;;;;;5050791;28;20025;-73
2023/05/20 06:33:50;;;;;;;16.48;6.10;;;;;;;;;;5030536;28;20045;-73
2023/05/20 06:36:16;;;;;;;16.73;6.40;;;;;;;;;;5046007;28;20013;-72
2023/05/20 06:38:42;;;;;;;9.70;5.80;;;;;;;;;;5043072;28;20037;-73
2023/05/20 06:41:09;;;;;;;9.98;5.88;;;;;;;;;;5040572;28;20552;-73
2023/05/20 06:43:35;;;;;;;10.63;5.18;;;;;;;;;;5054036;28;20068;-72
2023/05/20 06:46:08;;;;;;;;;;;;;;;;;;5052383;28;20107;-73
2023/05/20 06:48:57;;;;;;;11.63;5.93;;;;;;;;;;5032566;28;19913;-72
2023/05/20 06:51:22;;;;;;;10.13;5.35;;;;;;;;;;5039811;28;20040;-70
2023/05/20 06:53:49;;;;;;;15.38;5.53;;;;;;;;;;5049257;28;20028;-73
2023/05/20 06:56:15;;;;;;;7.15;4.53;;;;;;;;;;5050069;28;20397;-72
2023/05/20 06:58:42;;;;;;;12.27;6.07;;;;;;;;;;5050283;28;20029;-72
2023/05/20 07:01:08;;;;;;;12.43;5.78;;;;;;;;;;5066487;28;20037;-71
2023/05/20 07:03:34;;;;;;;10.75;6.28;;;;;;;;;;5048040;28;20312;-73
2023/05/20 07:06:02;;;;;;;8.55;5.93;;;;;;;;;;5041356;28;20362;-72
2023/05/20 07:08:27;;;;;;;18.85;6.20;;;;;;;;;;5051777;28;20131;-73
2023/05/20 07:10:57;;;;;;;9.60;5.65;;;;;;;;;;5052270;28;20028;-73
2023/05/20 07:13:23;;;;;;;18.40;6.68;;;;;;;;;;5049370;28;20433;-73
2023/05/20 07:15:50;;;;;;;14.25;7.20;;;;;;;;;;5058231;28;20215;-72
2023/05/20 07:18:16;;;;;;;11.18;5.53;;;;;;;;;;5046114;28;20029;-73
2023/05/20 07:20:46;;;;;;;10.52;6.22;;;;;;;;;;5038278;28;20491;-73
2023/05/20 07:23:25;;;;;;;12.43;5.82;;;;;;;;;;5076087;28;20514;-73
2023/05/20 07:25:53;;;;;;;11.18;6.53;;;;;;;;;;5077118;28;20509;-72
2023/05/20 07:28:19;;;;;;;11.77;5.95;;;;;;;;;;5047677;28;20039;-74
2023/05/20 07:30:48;;;;;;;15.95;5.97;;;;;;;;;;5044727;28;20029;-74
2023/05/20 07:33:21;;;;;;;9.50;5.80;;;;;;;;;;5045907;28;20013;-74
2023/05/20 07:35:47;;;;;;;10.20;5.97;;;;;;;;;;5029677;28;20037;-73
2023/05/20 07:38:14;;;;;;;9.20;5.40;;;;;;;;;;5044147;28;20427;-74
2023/05/20 07:40:41;;;;;;;8.38;5.22;;;;;;;;;;5044494;28;20040;-74
2023/05/20 07:43:08;;;;;;;10.55;5.60;;;;;;;;;;5046264;28;20025;-74
2023/05/20 07:45:35;;;;;;;8.70;5.00;;;;;;;;;;5028162;28;20029;-74
2023/05/20 07:48:02;;;;;;;12.98;5.85;;;;;;;;;;5048659;28;20070;-74
2023/05/20 07:50:28;;;;;;;8.65;5.07;;;;;;;;;;5041833;28;20037;-74
2023/05/20 07:52:54;;;;;;;11.77;5.55;;;;;;;;;;5048157;28;20048;-72
2023/05/20 07:55:22;;;;;;;9.73;5.45;;;;;;;;;;5034394;28;20525;-72
2023/05/20 07:57:48;;;;;;;13.70;5.40;;;;;;;;;;5043150;28;20095;-72
2023/05/20 08:00:14;;;;;;;14.32;5.50;;;;;;;;;;5043723;28;20500;-74
2023/05/20 08:02:43;;;;;;;10.25;5.60;;;;;;;;;;5032695;28;20025;-71
2023/05/20 08:05:13;;;;;;;10.05;5.43;;;;;;;;;;5033133;28;20029;-72
2023/05/20 08:07:39;;;;;;;8.25;5.40;;;;;;;;;;5075862;28;20028;-75
2023/05/20 08:10:06;;;;;;;11.38;5.50;;;;;;;;;;5042606;28;20047;-73
2023/05/20 08:12:31;;;;;;;9.18;4.90;;;;;;;;;;5043379;28;20057;-72
2023/05/20 08:14:57;;;;;;;9.27;5.63;;;;;;;;;;5047734;28;20076;-73
2023/05/20 08:17:23;;;;;;;9.65;5.32;;;;;;;;;;5050660;28;20083;-72
2023/05/20 08:19:49;;;;;;;11.40;5.10;;;;;;;;;;5052960;28;20082;-73
2023/05/20 08:22:15;;;;;;;9.80;5.20;;;;;;;;;;5042239;28;20124;-72
2023/05/20 08:24:40;;;;;;;9.18;5.78;;;;;;;;;;5050272;28;20032;-74
2023/05/20 08:27:07;;;;;;;15.10;6.03;;;;;;;;;;5035186;28;20491;-72
2023/05/20 08:29:32;;;;;;;10.15;5.80;;;;;;;;;;5051493;28;20124;-72
2023/05/20 08:31:59;;;;;;;9.18;5.65;;;;;;;;;;5042762;28;20021;-74
2023/05/20 08:34:26;;;;;;;11.07;5.32;;;;;;;;;;5059372;28;20538;-74
2023/05/20 08:36:52;;;;;;;13.55;5.85;;;;;;;;;;5043083;28;20148;-73
2023/05/20 08:39:18;;;;;;;9.88;5.53;;;;;;;;;;5058915;28;20033;-73
2023/05/20 08:41:45;;;;;;;10.68;5.22;;;;;;;;;;5038818;28;20029;-73
2023/05/20 08:44:11;;;;;;;8.95;4.82;;;;;;;;;;5031211;28;20033;-73
2023/05/20 08:46:38;;;;;;;14.10;5.40;;;;;;;;;;5050407;28;20060;-73
2023/05/20 08:49:06;;;;;;;12.18;4.88;;;;;;;;;;5052224;28;20021;-74
2023/05/20 08:51:35;;;;;;;10.00;5.63;;;;;;;;;;5042354;28;20044;-73
2023/05/20 08:54:01;;;;;;;11.40;5.28;;;;;;;;;;5051606;28;20032;-73
2023/05/20 08:56:27;;;;;;;18.60;5.82;;;;;;;;;;5043156;28;20183;-75
2023/05/20 08:58:53;;;;;;;9.15;5.38;;;;;;;;;;5052129;28;20100;-75
2023/05/20 09:01:25;;;;;;;16.92;5.25;;;;;;;;;;5046963;28;20033;-75
2023/05/20 09:03:51;;;;;;;15.00;5.55;;;;;;;;;;5051686;28;20113;-71
2023/05/20 09:06:19;;;;;;;10.32;5.93;;;;;;;;;;5051667;28;20115;-75
2023/05/20 09:08:45;;;;;;;10.85;5.80;;;;;;;;;;5052079;28;20033;-73
2023/05/20 09:11:11;;;;;;;9.35;4.95;;;;;;;;;;5048191;28;20024;-72
2023/05/20 09:13:37;;;;;;;8.27;5.05;;;;;;;;;;5050747;28;20254;-74
2023/05/20 09:16:03;;;;;;;6.97;4.25;;;;;;;;;;5051297;28;20013;-74
2023/05/20 09:18:30;;;;;;;6.65;4.50;;;;;;;;;;5050976;28;20112;-74
2023/05/20 09:20:57;;;;;;;10.80;4.88;;;;;;;;;;5040775;28;20178;-74
2023/05/20 09:23:29;;;;;;;9.57;5.40;;;;;;;;;;5050839;28;20036;-75
2023/05/20 09:25:55;;;;;;;8.95;5.13;;;;;;;;;;5042644;28;20162;-74
2023/05/20 09:28:25;;;;;;;11.45;5.07;;;;;;;;;;5064202;28;20544;-73
2023/05/20 09:30:59;;;;;;;8.85;5.38;;;;;;;;;;5050768;28;20047;-75
2023/05/20 09:33:30;;;;;;;7.85;5.50;;;;;;;;;;5050033;28;20167;-75
2023/05/20 09:36:09;;;;;;;9.88;5.80;;;;;;;;;;5044275;28;20533;-76
2023/05/20 09:38:38;;;;;;;9.18;5.20;;;;;;;;;;5050445;28;20037;-76
2023/05/20 09:41:07;;;;;;;7.63;4.88;;;;;;;;;;5044732;28;20487;-76
2023/05/20 09:43:36;;;;;;;10.90;5.85;;;;;;;;;;5048873;28;20029;-75
2023/05/20 09:46:03;;;;;;;7.50;4.65;;;;;;;;;;5050128;28;20021;-77
2023/05/20 09:48:30;;;;;;;7.95;4.70;;;;;;;;;;5050199;28;20510;-75
2023/05/20 09:50:56;;;;;;;7.22;4.40;;;;;;;;;;5050636;28;20095;-76
2023/05/20 09:53:29;;;;;;;9.63;5.90;;;;;;;;;;5050613;28;20040;-75
2023/05/20 09:55:55;;;;;;;7.10;4.38;;;;;;;;;;5049317;28;20037;-75
2023/05/20 09:58:22;;;;;;;11.95;6.85;;;;;;;;;;5050145;28;20021;-77
2023/05/20 10:00:48;;;;;;;10.07;4.30;;;;;;;;;;5050985;28;20533;-76
2023/05/20 10:03:14;;;;;;;8.95;4.80;;;;;;;;;;5045880;28;20108;-75
2023/05/20 10:06:12;;;;;;;10.20;4.70;;;;;;;;;;5049832;28;20029;-76
2023/05/20 10:09:02;;;;;;;9.82;4.68;;;;;;;;;;5050157;28;20184;-76
2023/05/20 10:12:00;;;;;;;9.93;4.55;;;;;;;;;;5040504;28;20060;-74
2023/05/20 10:15:07;;;;;;;6.13;4.45;;;;;;;;;;5050669;28;20260;-72
2023/05/20 10:17:52;;;;;;;6.97;4.63;;;;;;;;;;5038377;28;20074;-72
2023/05/20 10:20:18;;;;;;;7.32;4.78;;;;;;;;;;5050530;28;20037;-75
2023/05/20 10:22:56;;;;;;;15.60;5.47;;;;;;;;;;5048850;28;20364;-76
2023/05/20 10:25:27;;;;;;;9.20;4.10;;;;;;;;;;5029053;28;20099;-76
2023/05/20 10:28:07;;;;;;;7.32;4.65;;;;;;;;;;5029704;28;20607;-76
2023/05/20 10:30:34;;;;;;;19.63;5.68;;;;;;;;;;5046414;28;20103;-73
2023/05/20 10:33:04;;;;;;;7.07;4.80;;;;;;;;;;5033206;28;20099;-73
2023/05/20 10:35:30;;;;;;;6.60;4.53;;;;;;;;;;5054414;28;20052;-76
2023/05/20 10:38:12;;;;;;;11.48;4.88;;;;;;;;;;5054660;28;20021;-78
2023/05/20 10:40:38;;;;;;;10.50;5.15;;;;;;;;;;5055113;28;20147;-76
2023/05/20 10:43:15;;;;;;;9.65;4.70;;;;;;;;;;5070142;28;20029;-76
2023/05/20 10:45:52;;;;;;;8.38;4.97;;;;;;;;;;5054597;28;20037;-76
2023/05/20 10:48:24;;;;;;;9.68;4.70;;;;;;;;;;5054663;28;20113;-76
2023/05/20 10:50:54;;;;;;;9.18;4.05;;;;;;;;;;5054758;28;20106;-77
2023/05/20 10:53:23;;;;;;;6.95;4.28;;;;;;;;;;5054325;28;20051;-76
2023/05/20 10:55:50;;;;;;;7.75;4.35;;;;;;;;;;5055065;28;20036;-75
2023/05/20 10:58:18;;;;;;;9.93;4.53;;;;;;;;;;5054945;28;20482;-76
2023/05/20 11:00:44;;;;;;;10.02;4.65;;;;;;;;;;5055263;28;20033;-79
2023/05/20 11:03:11;;;;;;;9.27;4.65;;;;;;;;;;5070341;28;20477;-74
2023/05/20 11:05:40;;;;;;;7.32;4.50;;;;;;;;;;5054687;28;20474;-78
2023/05/20 11:08:07;;;;;;;8.20;4.90;;;;;;;;;;5054856;28;20415;-77
2023/05/20 11:10:34;;;;;;;10.25;5.03;;;;;;;;;;5055461;28;20024;-76
2023/05/20 11:13:01;;;;;;;8.15;4.43;;;;;;;;;;5054345;28;20029;-75
2023/05/20 11:15:27;;;;;;;6.88;4.70;;;;;;;;;;5052890;28;20029;-76
2023/05/20 11:17:53;;;;;;;7.47;4.15;;;;;;;;;;5053424;28;20040;-76
2023/05/20 11:20:19;;;;;;;14.20;5.20;;;;;;;;;;5054378;28;20387;-76
2023/05/20 11:22:46;;;;;;;9.82;4.60;;;;;;;;;;5052897;28;20029;-75
2023/05/20 11:25:11;;;;;;;9.32;4.80;;;;;;;;;;5046949;28;20509;-74
2023/05/20 11:27:40;;;;;;;10.75;6.07;;;;;;;;;;5054866;28;20068;-78
2023/05/20 11:30:06;;;;;;;8.02;5.07;;;;;;;;;;5053850;28;20108;-74
2023/05/20 11:32:32;;;;;;;6.50;3.75;;;;;;;;;;5052072;28;20051;-77
2023/05/20 11:34:58;;;;;;;8.98;4.65;;;;;;;;;;5053162;28;20107;-77
2023/05/20 11:37:23;;;;;;;9.65;4.82;;;;;;;;;;5054130;28;20573;-76
2023/05/20 11:40:08;;;;;;;7.13;4.25;;;;;;;;;;5054933;28;20080;-77
2023/05/20 11:42:35;;;;;;;9.75;4.22;;;;;;;;;;5053501;28;20040;-76
2023/05/20 11:45:01;;;;;;;7.60;4.43;;;;;;;;;;5053453;28;20031;-76
2023/05/20 11:47:27;;;;;;;7.38;4.25;;;;;;;;;;5053916;28;20056;-76
2023/05/20 11:49:54;;;;;;;8.65;4.35;;;;;;;;;;5048100;28;20068;-76
2023/05/20 11:52:20;;;;;;;6.68;4.25;;;;;;;;;;5048399;28;20071;-75
2023/05/20 11:54:52;;;;;;;7.72;4.18;;;;;;;;;;5052423;28;20467;-76
2023/05/20 11:57:19;;;;;;;7.75;3.88;;;;;;;;;;5052594;28;20033;-77
2023/05/20 11:59:46;;;;;;;7.72;4.32;;;;;;;;;;5054085;28;20387;-74
2023/05/20 12:02:12;;;;;;;11.45;4.95;;;;;;;;;;5068898;28;20041;-74
2023/05/20 12:04:38;;;;;;;11.57;5.53;;;;;;;;;;5052197;28;20025;-71
2023/05/20 12:07:08;;;;;;;16.23;4.47;;;;;;;;;;5053962;28;20033;-76
2023/05/20 12:09:34;;;;;;;7.57;4.43;;;;;;;;;;5053885;28;20487;-76
2023/05/20 12:12:00;;;;;;;8.48;3.95;;;;;;;;;;5053783;28;20079;-73
2023/05/20 12:14:25;;;;;;;6.72;4.30;;;;;;;;;;5053857;28;20025;-73
2023/05/20 12:16:52;;;;;;;5.97;4.25;;;;;;;;;;5053685;28;20430;-73
2023/05/20 12:19:18;;;;;;;10.68;5.13;;;;;;;;;;5043961;28;20453;-75
2023/05/20 12:21:46;;;;;;;6.97;4.00;;;;;;;;;;5051817;28;20026;-75
2023/05/20 12:24:12;;;;;;;6.50;3.95;;;;;;;;;;5049601;28;20033;-75
2023/05/20 12:26:37;;;;;;;7.45;4.18;;;;;;;;;;5053696;28;20502;-75
2023/05/20 12:29:03;;;;;;;6.40;4.50;;;;;;;;;;5054238;28;20114;-72
2023/05/20 12:31:29;;;;;;;6.85;3.88;;;;;;;;;;5053737;28;20451;-74
2023/05/20 12:33:55;;;;;;;6.30;4.25;;;;;;;;;;5052359;28;20033;-75
2023/05/20 12:36:22;;;;;;;17.15;10.02;;;;;;;;;;5053854;28;20117;-75
2023/05/20 12:38:48;;;;;;;8.32;5.30;;;;;;;;;;5053619;28;20075;-74
2023/05/20 12:41:13;;;;;;;10.93;6.75;;;;;;;;;;5069023;28;20028;-74
2023/05/20 12:43:39;;;;;;;15.40;9.57;;;;;;;;;;5052238;28;20112;-75
2023/05/20 12:46:05;;;;;;;9.50;3.92;;;;;;;;;;5053140;28;20024;-73
2023/05/20 12:48:31;;;;;;;7.40;4.03;;;;;;;;;;5053451;28;20032;-75
2023/05/20 12:50:57;;;;;;;14.75;9.45;;;;;;;;;;5054039;28;20438;-75
2023/05/20 12:53:23;;;;;;;8.85;5.15;;;;;;;;;;5054202;28;20521;-73
2023/05/20 12:55:48;;;;;;;5.75;3.60;;;;;;;;;;5053073;28;20032;-72
2023/05/20 12:58:14;;;;;;;5.47;3.65;;;;;;;;;;5052293;28;20075;-75
2023/05/20 13:00:41;;;;;;;6.55;4.32;;;;;;;;;;5053273;28;20044;-74
2023/05/20 13:03:07;;;;;;;5.85;3.85;;;;;;;;;;5052624;28;20044;-75
2023/05/20 13:05:33;;;;;;;8.07;3.97;;;;;;;;;;5052407;28;20021;-74
2023/05/20 13:07:59;;;;;;;6.78;3.58;;;;;;;;;;5051397;28;20116;-73
2023/05/20 13:10:25;;;;;;;5.90;3.78;;;;;;;;;;5051325;28;20047;-74
2023/05/20 13:12:52;;;;;;;5.72;4.03;;;;;;;;;;5067895;28;20123;-74
2023/05/20 13:15:17;;;;;;;4.95;3.78;;;;;;;;;;5052417;28;20045;-73
2023/05/20 13:17:43;;;;;;;9.38;4.60;;;;;;;;;;5051996;28;20044;-75
2023/05/20 13:20:09;;;;;;;6.95;3.38;;;;;;;;;;5052264;28;20121;-74
2023/05/20 13:22:36;;;;;;;5.28;3.50;;;;;;;;;;5052292;28;20032;-74
2023/05/20 13:25:03;;;;;;;8.23;4.47;;;;;;;;;;5052416;28;20047;-73
2023/05/20 13:27:29;;;;;;;5.90;3.85;;;;;;;;;;5052377;28;20032;-73
2023/05/20 13:29:55;;;;;;;6.40;3.90;;;;;;;;;;5052101;28;20475;-73
2023/05/20 13:32:21;;;;;;;6.63;4.22;;;;;;;;;;5052116;28;20041;-74
2023/05/20 13:34:46;;;;;;;9.25;4.57;;;;;;;;;;5051912;28;20079;-73
2023/05/20 13:37:12;;;;;;;7.15;4.25;;;;;;;;;;5051911;28;20078;-72
2023/05/20 13:39:37;;;;;;;8.00;4.18;;;;;;;;;;5051826;28;20056;-74
2023/05/20 13:42:03;;;;;;;8.20;4.30;;;;;;;;;;5051618;28;20056;-76
2023/05/20 13:44:29;;;;;;;11.27;4.63;;;;;;;;;;5049768;28;20095;-74
2023/05/20 13:46:55;;;;;;;9.65;4.50;;;;;;;;;;5051364;28;20033;-71
2023/05/20 13:49:21;;;;;;;9.73;4.57;;;;;;;;;;5066482;28;20095;-76
2023/05/20 13:51:46;;;;;;;6.88;4.10;;;;;;;;;;5051235;28;20131;-75
2023/05/20 13:54:12;;;;;;;6.45;4.30;;;;;;;;;;5050824;28;20526;-74
2023/05/20 13:56:38;;;;;;;8.00;4.85;;;;;;;;;;5051051;28;20054;-75
2023/05/20 13:59:05;;;;;;;10.38;4.95;;;;;;;;;;5051089;28;20044;-76
2023/05/20 14:01:34;;;;;;;6.75;4.47;;;;;;;;;;5051006;28;20517;-76
2023/05/20 14:04:00;;;;;;;6.00;4.10;;;;;;;;;;5051141;28;20021;-73
2023/05/20 14:06:28;;;;;;;9.50;4.75;;;;;;;;;;5050726;28;20356;-74
2023/05/20 14:08:56;;;;;;;7.65;3.65;;;;;;;;;;5050935;28;20111;-74
2023/05/20 14:11:22;;;;;;;10.93;4.43;;;;;;;;;;5051260;28;20029;-74
2023/05/20 14:13:47;;;;;;;7.45;4.22;;;;;;;;;;5049788;28;20443;-74
2023/05/20 14:16:13;;;;;;;7.35;3.70;;;;;;;;;;5049396;28;20041;-75
2023/05/20 14:18:40;;;;;;;7.15;4.05;;;;;;;;;;5050910;28;20025;-74
2023/05/20 14:21:06;;;;;;;6.63;4.70;;;;;;;;;;5050757;28;20459;-75
2023/05/20 14:23:32;;;;;;;6.05;4.05;;;;;;;;;;5051260;28;20090;-73
2023/05/20 14:25:58;;;;;;;5.47;4.18;;;;;;;;;;5050760;28;20088;-72
2023/05/20 14:28:24;;;;;;;5.60;3.92;;;;;;;;;;5050998;28;20048;-74
2023/05/20 14:30:50;;;;;;;5.60;3.60;;;;;;;;;;5051034;28;20041;-76
2023/05/20 14:33:16;;;;;;;6.00;3.90;;;;;;;;;;5051252;28;20013;-75
2023/05/20 14:35:42;;;;;;;6.35;4.00;;;;;;;;;;5050454;28;20033;-75